Time;durP1;ratioP1;P1;durP2;ratioP2;P2;SDS_P1;SDS_P2;PMS_P1;PMS_P2;Temp;Humidity;BMP_temperature;BMP_pressure;BME280_temperature;BME280_humidity;BME280_pressure;Samples;Min_cycle;Max_cycle;Signal;HPM_P1;HPM_P2
2022/04/12 00:00:53;;;;;;;10.73;8.98;;;;;;;8.21;58.20;101097.22;5024431;28;20022;-74
2022/04/12 00:03:18;;;;;;;12.70;8.55;;;;;;;8.19;58.83;101080.97;5024870;28;20061;-74
2022/04/12 00:05:44;;;;;;;12.18;8.80;;;;;;;8.19;58.47;101081.78;5024932;28;20060;-74
2022/04/12 00:08:10;;;;;;;10.80;8.20;;;;;;;8.18;58.66;101089.66;5026136;28;20013;-74
2022/04/12 00:10:35;;;;;;;10.40;7.95;;;;;;;8.20;58.84;101086.06;5025805;28;20032;-75
2022/04/12 00:13:02;;;;;;;10.73;7.65;;;;;;;8.22;58.74;101083.34;5024745;28;20526;-74
2022/04/12 00:15:27;;;;;;;10.35;7.93;;;;;;;8.20;58.38;101074.84;5026140;28;20067;-74
2022/04/12 00:20:37;;;;;;;10.48;6.93;;;;;;;8.29;58.48;101076.00;5025694;28;20036;-74
2022/04/12 00:23:04;;;;;;;9.85;6.90;;;;;;;8.31;58.11;101074.97;5023733;28;20049;-74
2022/04/12 00:25:30;;;;;;;8.65;6.18;;;;;;;8.29;57.34;101058.75;5023969;28;20025;-74
2022/04/12 00:27:57;;;;;;;9.55;6.28;;;;;;;8.28;57.25;101057.09;5025670;28;20040;-75
2022/04/12 00:30:24;;;;;;;9.40;6.75;;;;;;;8.25;57.67;101052.13;5025544;28;20083;-75
2022/04/12 00:32:52;;;;;;;8.57;6.28;;;;;;;8.31;57.28;101046.53;5023680;28;20033;-75
2022/04/12 00:35:19;;;;;;;9.25;6.55;;;;;;;8.33;57.26;101044.69;5025223;28;20040;-74
2022/04/12 00:37:44;;;;;;;9.45;6.40;;;;;;;8.31;57.31;101036.19;5024502;28;20221;-75
2022/04/12 00:40:10;;;;;;;9.27;5.85;;;;;;;8.34;57.81;101038.59;5024644;28;20108;-74
2022/04/12 00:42:36;;;;;;;9.18;5.70;;;;;;;8.25;57.48;101028.88;5025760;28;20118;-74
2022/04/12 00:45:02;;;;;;;10.63;5.97;;;;;;;8.37;57.66;101030.66;5025916;28;20104;-74
2022/04/12 00:47:28;;;;;;;11.93;9.93;;;;;;;8.31;57.37;101025.03;5025184;28;20040;-75
2022/04/12 00:49:53;;;;;;;8.80;6.38;;;;;;;8.35;57.52;101037.66;5025475;28;20021;-74
2022/04/12 00:52:19;;;;;;;9.00;5.90;;;;;;;8.34;57.44;101041.16;5026215;28;20029;-75
2022/04/12 00:54:45;;;;;;;9.50;5.88;;;;;;;8.29;57.35;101045.81;5025366;28;20520;-75
2022/04/12 00:57:11;;;;;;;7.68;5.57;;;;;;;8.32;57.77;101057.72;5025052;28;20037;-75
2022/04/12 00:59:37;;;;;;;8.60;5.90;;;;;;;8.29;57.58;101050.16;5025446;28;20029;-74
2022/04/12 01:02:06;;;;;;;9.35;5.88;;;;;;;8.29;57.53;101047.59;5024887;28;20076;-75
2022/04/12 01:04:33;;;;;;;9.20;6.03;;;;;;;8.33;57.08;101043.88;5025509;28;20036;-74
2022/04/12 01:06:59;;;;;;;10.30;6.00;;;;;;;8.25;57.08;101034.84;5025434;28;20037;-74
2022/04/12 01:09:26;;;;;;;9.05;5.82;;;;;;;8.30;57.09;101038.91;5020996;28;20060;-74
2022/04/12 01:11:56;;;;;;;9.43;5.93;;;;;;;8.32;57.22;101052.56;5021086;28;20072;-75
2022/04/12 01:14:24;;;;;;;8.25;5.68;;;;;;;8.32;57.49;101053.38;5024730;28;20515;-74
2022/04/12 01:16:51;;;;;;;8.73;5.53;;;;;;;8.18;57.50;101040.56;5027049;28;20033;-74
2022/04/12 01:19:18;;;;;;;9.38;5.47;;;;;;;8.21;57.37;101046.34;5029294;28;20021;-75
2022/04/12 01:21:52;;;;;;;9.60;5.97;;;;;;;8.30;57.17;101055.22;5028846;28;20076;-75
2022/04/12 01:24:18;;;;;;;9.55;5.80;;;;;;;8.09;57.17;101010.19;5008999;28;20034;-75
2022/04/12 01:26:44;;;;;;;9.98;6.63;;;;;;;8.31;57.77;101056.88;5007735;28;20037;-74
2022/04/12 01:29:09;;;;;;;8.75;5.90;;;;;;;8.29;57.73;101047.59;5027887;28;20123;-75
2022/04/12 01:31:35;;;;;;;8.48;5.75;;;;;;;8.26;57.56;101046.06;5029774;28;20116;-74
2022/04/12 01:34:00;;;;;;;8.80;5.55;;;;;;;8.20;57.38;101036.09;5029117;28;20028;-74
2022/04/12 01:36:26;;;;;;;8.52;5.95;;;;;;;8.18;58.01;101037.97;5028452;28;20060;-74
2022/04/12 01:38:51;;;;;;;9.15;5.55;;;;;;;8.08;57.90;101024.03;5028514;28;20120;-74
2022/04/12 01:41:16;;;;;;;10.20;6.55;;;;;;;8.18;57.55;101050.91;5028318;28;20060;-75
2022/04/12 01:43:42;;;;;;;9.65;6.10;;;;;;;8.11;58.36;101035.00;5028605;28;20033;-74
2022/04/12 01:46:07;;;;;;;9.85;5.80;;;;;;;8.12;58.32;101033.22;5028032;28;20029;-74
2022/04/12 01:48:33;;;;;;;8.75;6.05;;;;;;;8.14;58.09;101039.09;5027950;28;20548;-75
2022/04/12 01:50:58;;;;;;;9.55;5.97;;;;;;;8.09;58.01;101036.03;5043421;28;20025;-75
2022/04/12 01:53:23;;;;;;;9.60;6.00;;;;;;;8.12;58.55;101040.97;5026811;28;20072;-76
2022/04/12 01:55:49;;;;;;;8.65;6.10;;;;;;;8.09;58.32;101030.88;5027923;28;20079;-74
2022/04/12 01:58:14;;;;;;;8.70;6.20;;;;;;;8.06;58.49;101033.66;5027483;28;20087;-74
2022/04/12 02:00:42;;;;;;;10.02;6.40;;;;;;;8.03;58.64;101031.25;5027996;28;20025;-75
2022/04/12 02:03:08;;;;;;;8.63;5.93;;;;;;;8.01;58.35;101027.97;5028153;28;20116;-74
2022/04/12 02:05:34;;;;;;;9.95;6.15;;;;;;;8.04;58.75;101040.69;5026698;28;20025;-75
2022/04/12 02:07:59;;;;;;;9.82;6.22;;;;;;;7.94;58.59;101018.03;5027897;28;20087;-75
2022/04/12 02:10:24;;;;;;;9.50;6.25;;;;;;;8.00;58.96;101021.97;5026875;28;20099;-74
2022/04/12 02:12:49;;;;;;;9.57;6.00;;;;;;;7.92;59.19;101013.94;5028421;28;20268;-74
2022/04/12 02:15:16;;;;;;;10.07;6.63;;;;;;;7.90;58.93;101014.00;5028670;28;20525;-74
2022/04/12 02:17:41;;;;;;;9.05;6.32;;;;;;;7.88;59.04;101008.13;5028148;28;20033;-75
2022/04/12 02:20:07;;;;;;;9.65;6.80;;;;;;;7.92;59.49;101017.34;5027194;28;20068;-74
2022/04/12 02:22:32;;;;;;;8.93;6.47;;;;;;;7.84;59.27;101011.00;5027547;28;20125;-74
2022/04/12 02:24:58;;;;;;;9.63;7.00;;;;;;;7.89;59.05;101008.94;5028095;28;20033;-74
2022/04/12 02:27:23;;;;;;;11.35;6.60;;;;;;;7.84;60.16;101016.19;5026919;28;20117;-75
2022/04/12 02:29:48;;;;;;;11.70;6.57;;;;;;;7.85;59.91;101013.47;5043095;28;20355;-74
2022/04/12 02:32:14;;;;;;;9.63;6.65;;;;;;;7.81;59.26;101017.22;5027627;28;20465;-74
2022/04/12 02:34:39;;;;;;;9.75;6.50;;;;;;;7.82;59.19;101018.03;5026023;28;20059;-75
2022/04/12 02:37:05;;;;;;;9.00;6.53;;;;;;;7.78;59.52;101027.75;5027470;28;20033;-74
2022/04/12 02:39:30;;;;;;;11.00;6.47;;;;;;;7.78;60.45;101025.16;5026923;28;20373;-74
2022/04/12 02:41:55;;;;;;;10.10;6.88;;;;;;;7.81;59.46;101031.91;5027405;28;20423;-74
2022/04/12 02:44:21;;;;;;;10.77;7.20;;;;;;;7.78;59.96;101020.00;5025882;28;20029;-74
2022/04/12 02:46:46;;;;;;;10.90;6.97;;;;;;;7.77;60.01;101026.09;5008297;28;20088;-74
2022/04/12 02:49:12;;;;;;;9.82;6.57;;;;;;;7.72;60.63;101023.00;5026417;28;20132;-75
2022/04/12 02:51:37;;;;;;;10.82;6.85;;;;;;;7.65;59.95;101011.41;5029825;28;20032;-74
2022/04/12 02:54:02;;;;;;;11.10;7.07;;;;;;;7.67;60.66;101015.53;5028678;28;20025;-74
2022/04/12 02:56:28;;;;;;;10.07;6.78;;;;;;;7.66;60.62;101007.91;5027127;28;20453;-74
2022/04/12 02:58:53;;;;;;;11.18;6.88;;;;;;;7.64;60.26;101009.78;5028658;28;20025;-75
2022/04/12 03:01:19;;;;;;;11.32;7.43;;;;;;;7.61;60.58;101002.22;5028685;28;20556;-74
2022/04/12 03:03:44;;;;;;;10.00;7.20;;;;;;;7.53;60.87;101001.91;5028598;28;20135;-74
2022/04/12 03:06:09;;;;;;;10.20;7.22;;;;;;;7.53;60.74;100996.75;5028683;28;20569;-74
2022/04/12 03:08:35;;;;;;;11.15;7.10;;;;;;;7.50;60.87;100996.94;5028175;28;20522;-75
2022/04/12 03:11:00;;;;;;;10.02;7.30;;;;;;;7.49;61.28;100983.22;5028026;28;20032;-74
2022/04/12 03:13:25;;;;;;;11.50;7.18;;;;;;;7.45;61.04;100980.03;5028921;28;20029;-74
2022/04/12 03:15:51;;;;;;;10.48;7.28;;;;;;;7.49;60.96;100977.22;5028459;28;20026;-74
2022/04/12 03:18:17;;;;;;;10.73;7.32;;;;;;;7.40;61.29;100971.75;5027868;28;20042;-74
2022/04/12 03:20:43;;;;;;;10.30;6.97;;;;;;;7.48;61.26;100967.84;5028849;28;20541;-74
2022/04/12 03:23:08;;;;;;;10.07;6.88;;;;;;;7.49;61.09;100972.06;5028134;28;20060;-75
2022/04/12 03:25:34;;;;;;;10.52;7.43;;;;;;;7.45;61.30;100977.44;5027578;28;20025;-74
2022/04/12 03:28:00;;;;;;;10.00;7.10;;;;;;;7.46;61.19;100973.09;5027764;28;20068;-74
2022/04/12 03:30:25;;;;;;;9.93;7.22;;;;;;;7.47;61.06;100968.78;5028027;28;20472;-74
2022/04/12 03:32:51;;;;;;;10.63;7.10;;;;;;;7.45;61.25;100982.59;5028285;28;20029;-74
2022/04/12 03:35:16;;;;;;;12.13;7.53;;;;;;;7.32;61.47;100961.09;5026469;28;20117;-74
2022/04/12 03:37:41;;;;;;;10.18;7.25;;;;;;;7.44;60.90;100970.59;5027871;28;20043;-76
2022/04/12 03:40:07;;;;;;;11.60;7.43;;;;;;;7.35;61.48;100960.09;5026717;28;20034;-74
2022/04/12 03:42:32;;;;;;;11.65;7.55;;;;;;;7.27;61.62;100950.25;5042892;28;20152;-74
2022/04/12 03:44:58;;;;;;;10.40;7.47;;;;;;;7.31;61.68;100962.03;5028143;28;20057;-74
2022/04/12 03:47:23;;;;;;;10.98;7.07;;;;;;;7.23;61.49;100956.56;5009600;28;20072;-74
2022/04/12 03:49:48;;;;;;;10.55;7.43;;;;;;;7.24;61.87;100963.38;5008232;28;20137;-74
2022/04/12 03:52:14;;;;;;;11.18;7.78;;;;;;;7.25;61.65;100954.69;5007536;28;20530;-74
2022/04/12 03:54:39;;;;;;;12.18;8.57;;;;;;;7.22;62.51;100957.47;5007200;28;20458;-74
2022/04/12 03:57:04;;;;;;;10.93;7.90;;;;;;;7.19;61.96;100957.69;5006253;28;20057;-74
2022/04/12 03:59:30;;;;;;;10.77;7.70;;;;;;;7.22;61.96;100964.38;5007003;28;20026;-74
2022/04/12 04:01:55;;;;;;;11.98;8.20;;;;;;;7.29;61.50;100974.22;5007650;28;20021;-74
2022/04/12 04:04:20;;;;;;;10.57;7.72;;;;;;;7.29;61.80;100958.72;5006614;28;20022;-75
2022/04/12 04:06:46;;;;;;;12.40;8.13;;;;;;;7.12;62.08;100951.28;5006903;28;20495;-74
2022/04/12 04:09:12;;;;;;;10.45;8.18;;;;;;;7.23;62.29;100953.16;5006445;28;20247;-74
2022/04/12 04:11:40;;;;;;;10.90;7.63;;;;;;;7.20;61.85;100949.00;5007523;28;20108;-75
2022/04/12 04:14:10;;;;;;;11.13;7.88;;;;;;;7.16;61.84;100942.38;5027476;28;20053;-74
2022/04/12 04:16:36;;;;;;;11.30;7.57;;;;;;;7.21;62.25;100945.50;5006766;28;20030;-73
2022/04/12 04:19:02;;;;;;;11.18;7.53;;;;;;;7.22;61.83;100941.97;5005448;28;20081;-74
2022/04/12 04:21:27;;;;;;;10.80;8.25;;;;;;;7.21;62.00;100945.50;5006073;28;20029;-75
2022/04/12 04:23:52;;;;;;;10.65;7.70;;;;;;;7.20;61.52;100949.00;5022555;28;20147;-75
2022/04/12 04:26:17;;;;;;;10.68;7.88;;;;;;;7.18;61.47;100941.38;5026888;28;20044;-74
2022/04/12 04:28:44;;;;;;;10.65;7.47;;;;;;;7.17;62.06;100944.88;5027840;28;20466;-74
2022/04/12 04:31:10;;;;;;;10.90;7.63;;;;;;;7.22;62.35;100949.72;5024597;28;20100;-75
2022/04/12 04:33:35;;;;;;;9.93;7.53;;;;;;;7.19;62.94;100942.19;5027228;28;20037;-75
2022/04/12 04:36:01;;;;;;;12.85;8.18;;;;;;;7.15;62.58;100951.06;5027162;28;20029;-74
2022/04/12 04:38:26;;;;;;;11.77;7.70;;;;;;;7.19;62.82;100958.50;5025626;28;20043;-74
2022/04/12 04:40:51;;;;;;;10.93;7.72;;;;;;;7.16;62.73;100948.38;5026473;28;20029;-74
2022/04/12 04:43:17;;;;;;;11.80;8.18;;;;;;;7.20;62.97;100949.00;5026962;28;20029;-74
2022/04/12 04:45:46;;;;;;;10.60;7.88;;;;;;;7.16;62.91;100947.53;5027199;28;20033;-74
2022/04/12 04:48:11;;;;;;;;;;;;;;;7.31;62.56;100956.88;5025797;28;20064;-74
2022/04/12 04:50:36;;;;;;;10.60;7.68;;;;;;;7.24;62.29;100962.53;5026154;28;20365;-75
2022/04/12 04:53:04;;;;;;;11.95;8.02;;;;;;;7.18;62.54;100961.19;5026163;28;20029;-74
2022/04/12 04:55:30;;;;;;;11.18;8.10;;;;;;;7.22;62.95;100970.34;5026777;28;20029;-74
2022/04/12 04:57:58;;;;;;;12.48;7.90;;;;;;;7.19;62.91;100973.16;5025425;28;20112;-74
2022/04/12 05:00:25;;;;;;;12.45;8.50;;;;;;;7.18;62.68;100972.31;5025992;28;20069;-74
2022/04/12 05:02:53;;;;;;;11.85;8.45;;;;;;;7.20;62.69;100979.97;5026511;28;20355;-74
2022/04/12 05:05:19;;;;;;;11.82;7.82;;;;;;;7.19;63.28;100978.31;5026323;28;20021;-74
2022/04/12 05:07:47;;;;;;;11.93;8.07;;;;;;;7.18;63.32;100990.38;5041025;28;20041;-74
2022/04/12 05:10:17;;;;;;;12.57;8.25;;;;;;;7.19;62.64;100988.63;5026475;28;20056;-75
2022/04/12 05:12:42;;;;;;;11.35;7.90;;;;;;;7.21;62.92;100981.59;5026825;28;20037;-74
2022/04/12 05:15:09;;;;;;;11.18;7.55;;;;;;;7.21;63.28;100981.59;5026378;28;20029;-74
2022/04/12 05:17:34;;;;;;;11.70;8.40;;;;;;;7.16;63.07;100974.16;5027713;28;20033;-74
2022/04/12 05:19:59;;;;;;;11.82;8.70;;;;;;;7.12;63.85;100971.91;5026821;28;20030;-74
2022/04/12 05:22:26;;;;;;;13.52;9.02;;;;;;;7.15;63.41;100993.16;5026161;28;20462;-74
2022/04/12 05:24:52;;;;;;;11.82;8.80;;;;;;;7.15;63.30;100993.16;5028099;28;20025;-74
2022/04/12 05:27:18;;;;;;;12.20;8.70;;;;;;;7.19;63.38;100996.38;5024829;28;20025;-74
2022/04/12 05:29:43;;;;;;;11.77;8.77;;;;;;;7.19;63.31;100988.63;5026837;28;20030;-74
2022/04/12 05:32:09;;;;;;;11.63;8.73;;;;;;;7.27;63.50;100991.53;5025886;28;20485;-74
2022/04/12 05:34:45;;;;;;;11.65;8.65;;;;;;;7.23;64.28;100984.94;5026780;28;20040;-74
2022/04/12 05:37:11;;;;;;;11.77;8.32;;;;;;;7.18;63.60;100971.50;5026254;28;20437;-74
2022/04/12 05:39:36;;;;;;;11.95;8.57;;;;;;;7.26;63.70;100983.91;5025139;28;20030;-74
2022/04/12 05:42:02;;;;;;;12.52;8.70;;;;;;;7.23;63.28;100978.94;5026868;28;20030;-74
2022/04/12 05:44:34;;;;;;;12.40;8.45;;;;;;;7.23;63.53;100976.38;5025127;28;20029;-74
2022/04/12 05:47:01;;;;;;;11.85;9.52;;;;;;;7.23;64.36;100984.94;5026230;28;20033;-74
2022/04/12 05:49:27;;;;;;;12.63;9.40;;;;;;;7.22;63.63;100979.84;5026878;28;20021;-75
2022/04/12 05:51:52;;;;;;;11.07;8.70;;;;;;;7.22;64.22;100983.25;5028954;28;20036;-75
2022/04/12 05:54:17;;;;;;;12.93;9.00;;;;;;;7.19;64.43;100980.91;5028518;28;20029;-74
2022/04/12 05:56:43;;;;;;;12.07;7.95;;;;;;;7.21;64.01;100979.03;5029098;28;20029;-75
2022/04/12 05:59:09;;;;;;;12.18;8.73;;;;;;;7.20;64.03;100969.66;5028233;28;20034;-74
2022/04/12 06:01:34;;;;;;;13.20;9.75;;;;;;;7.22;64.17;100967.78;5028490;28;20560;-75
2022/04/12 06:04:00;;;;;;;12.30;9.52;;;;;;;7.28;64.01;100977.69;5029934;28;20472;-74
2022/04/12 06:06:27;;;;;;;11.93;8.82;;;;;;;7.29;63.58;100963.91;5028503;28;20029;-76
2022/04/12 06:08:52;;;;;;;12.65;9.15;;;;;;;7.31;64.21;100969.78;5019643;28;20473;-75
2022/04/12 06:11:18;;;;;;;12.90;8.60;;;;;;;7.32;64.10;100974.00;5029479;28;20044;-75
2022/04/12 06:13:43;;;;;;;12.23;9.00;;;;;;;7.38;63.81;100978.75;5029674;28;20056;-76
2022/04/12 06:16:08;;;;;;;12.50;9.30;;;;;;;7.42;64.63;100984.56;5010491;28;20068;-75
2022/04/12 06:18:34;;;;;;;14.20;9.10;;;;;;;7.43;64.55;100992.19;5015932;28;20296;-75
2022/04/12 06:20:59;;;;;;;12.45;9.15;;;;;;;7.48;64.83;100978.16;5029580;28;20030;-75
2022/04/12 06:23:24;;;;;;;11.93;9.38;;;;;;;7.56;64.99;100981.03;5029352;28;20148;-75
2022/04/12 06:25:50;;;;;;;11.95;9.13;;;;;;;7.60;65.38;100982.50;5029461;28;20369;-75
2022/04/12 06:28:15;;;;;;;14.68;9.40;;;;;;;7.67;65.34;100988.91;5029196;28;20065;-75
2022/04/12 06:30:40;;;;;;;11.63;9.07;;;;;;;7.73;64.17;100983.31;5029043;28;20466;-75
2022/04/12 06:33:06;;;;;;;12.95;9.10;;;;;;;7.81;64.47;100981.06;5029004;28;20702;-75
2022/04/12 06:35:31;;;;;;;12.15;8.75;;;;;;;7.83;64.61;100984.38;5029047;28;20037;-76
2022/04/12 06:37:56;;;;;;;12.25;9.43;;;;;;;7.88;63.78;100971.97;5023742;28;20025;-75
2022/04/12 06:40:23;;;;;;;12.05;8.73;;;;;;;7.92;64.63;100982.94;5009406;28;20038;-75
2022/04/12 06:42:50;;;;;;;13.23;8.95;;;;;;;7.91;64.24;100982.13;5009551;28;20096;-75
2022/04/12 06:45:16;;;;;;;12.60;9.38;;;;;;;7.94;64.20;100981.88;5008894;28;20030;-75
2022/04/12 06:47:42;;;;;;;12.73;9.40;;;;;;;7.98;63.81;100978.19;5009339;28;20022;-76
2022/04/12 06:50:09;;;;;;;12.27;8.73;;;;;;;8.06;63.92;100979.41;5025790;28;20041;-76
2022/04/12 06:52:35;;;;;;;13.55;9.18;;;;;;;8.18;63.98;100988.88;5011602;28;20429;-76
2022/04/12 06:55:01;;;;;;;12.07;9.32;;;;;;;8.25;63.79;100970.25;5007943;28;20021;-76
2022/04/12 06:57:31;;;;;;;12.10;8.88;;;;;;;8.31;64.06;100978.53;5008359;28;20061;-76
2022/04/12 06:59:56;;;;;;;13.32;9.45;;;;;;;8.37;64.23;100978.13;5008617;28;20068;-76
2022/04/12 07:02:22;;;;;;;12.23;8.90;;;;;;;8.43;64.26;100965.63;5007911;28;20029;-74
2022/04/12 07:04:47;;;;;;;13.05;9.43;;;;;;;8.49;63.79;100957.44;5010157;28;20646;-76
2022/04/12 07:07:12;;;;;;;11.07;8.77;;;;;;;8.59;63.76;100961.94;5010102;28;20049;-76
2022/04/12 07:09:38;;;;;;;13.57;9.45;;;;;;;8.62;63.85;100967.72;5007887;28;20021;-76
2022/04/12 07:12:03;;;;;;;13.30;9.55;;;;;;;8.71;64.00;100966.22;5006324;28;20036;-76
2022/04/12 07:14:29;;;;;;;12.68;9.05;;;;;;;8.83;62.79;100975.72;5007489;28;20045;-76
2022/04/12 07:16:55;;;;;;;12.98;9.00;;;;;;;8.89;63.11;100972.69;5010506;28;20298;-76
2022/04/12 07:19:21;;;;;;;11.93;9.38;;;;;;;8.98;63.00;100963.44;5021845;28;20042;-76
2022/04/12 07:21:48;;;;;;;11.57;8.82;;;;;;;9.06;62.71;100958.53;5007795;28;20096;-76
2022/04/12 07:24:14;;;;;;;11.57;9.15;;;;;;;9.19;63.61;100961.03;5008254;28;20030;-74
2022/04/12 07:26:39;;;;;;;13.02;9.40;;;;;;;9.29;62.84;100956.84;5027052;28;20041;-76
2022/04/12 07:29:05;;;;;;;13.27;9.50;;;;;;;9.39;63.35;100962.97;5027952;28;20506;-76
2022/04/12 07:31:30;;;;;;;12.13;9.07;;;;;;;9.51;63.05;100950.88;5028465;28;20060;-75
2022/04/12 07:33:55;;;;;;;11.38;8.85;;;;;;;9.57;62.44;100950.41;5028218;28;20056;-76
2022/04/12 07:36:21;;;;;;;13.45;9.40;;;;;;;9.75;62.41;100955.97;5027340;28;20540;-76
2022/04/12 07:38:48;;;;;;;12.75;8.98;;;;;;;9.87;62.23;100957.63;5028375;28;20033;-75
2022/04/12 07:41:15;;;;;;;12.98;8.90;;;;;;;9.93;61.61;100954.56;5024752;28;20057;-76
2022/04/12 07:43:42;;;;;;;11.18;8.57;;;;;;;10.08;61.32;100945.59;5043961;28;20079;-76
2022/04/12 07:46:07;;;;;;;12.23;8.18;;;;;;;10.16;60.18;100941.59;5047862;28;20082;-76
2022/04/12 07:48:32;;;;;;;10.85;8.25;;;;;;;10.31;59.61;100950.78;5028293;28;20065;-76
2022/04/12 07:50:58;;;;;;;11.55;8.35;;;;;;;10.39;59.66;100955.41;5028122;28;20030;-76
2022/04/12 07:53:23;;;;;;;12.35;8.88;;;;;;;10.54;59.84;100954.97;5028140;28;20476;-77
2022/04/12 07:55:48;;;;;;;11.25;8.40;;;;;;;10.68;59.54;100958.28;5027790;28;20121;-77
2022/04/12 07:58:17;;;;;;;11.90;7.78;;;;;;;10.77;59.30;100949.72;5015190;28;20515;-76
2022/04/12 08:00:42;;;;;;;11.70;8.10;;;;;;;10.87;58.36;100950.66;5027554;28;20037;-76
2022/04/12 08:03:08;;;;;;;11.82;8.40;;;;;;;11.00;59.61;100947.88;5026719;28;20038;-75
2022/04/12 08:05:34;;;;;;;11.73;8.48;;;;;;;11.11;58.00;100946.03;5027448;28;20065;-75
2022/04/12 08:08:00;;;;;;;12.52;8.48;;;;;;;11.27;59.34;100960.38;5027150;28;20075;-75
2022/04/12 08:10:25;;;;;;;12.50;8.60;;;;;;;11.35;59.37;100957.97;5026661;28;20029;-75
2022/04/12 08:12:52;;;;;;;10.80;7.90;;;;;;;11.50;59.00;100951.50;5027178;28;20147;-75
2022/04/12 08:15:18;;;;;;;10.98;8.25;;;;;;;11.58;58.27;100954.28;5026592;28;20044;-75
2022/04/12 08:17:44;;;;;;;11.70;8.35;;;;;;;11.64;58.26;100947.75;5027141;28;20060;-75
2022/04/12 08:20:09;;;;;;;10.70;8.27;;;;;;;11.80;57.88;100949.88;5025058;28;20116;-76
2022/04/12 08:22:36;;;;;;;11.93;8.60;;;;;;;11.88;57.97;100945.72;5026881;28;20152;-75
2022/04/12 08:25:01;;;;;;;11.85;8.50;;;;;;;11.95;57.54;100940.81;5027012;28;20040;-76
2022/04/12 08:27:27;;;;;;;10.07;8.07;;;;;;;12.06;58.39;100953.72;5026410;28;20025;-75
2022/04/12 08:29:53;;;;;;;9.68;8.10;;;;;;;12.16;57.95;100954.56;5026728;28;20112;-76
2022/04/12 08:32:18;;;;;;;11.43;8.32;;;;;;;12.26;57.53;100948.56;5026987;28;20052;-75
2022/04/12 08:34:44;;;;;;;12.85;7.85;;;;;;;12.36;57.49;100950.25;5027503;28;20048;-74
2022/04/12 08:37:10;;;;;;;10.30;8.07;;;;;;;12.42;57.34;100941.06;5009431;28;20129;-77
2022/04/12 08:39:35;;;;;;;11.27;8.20;;;;;;;12.56;57.06;100956.31;5006454;28;20038;-75
2022/04/12 08:42:03;;;;;;;11.93;8.68;;;;;;;12.63;57.20;100948.78;5025535;28;20474;-75
2022/04/12 08:44:30;;;;;;;10.57;7.97;;;;;;;12.76;56.70;100941.53;5026962;28;20040;-75
2022/04/12 08:46:57;;;;;;;9.93;8.05;;;;;;;12.86;57.15;100947.56;5032302;28;20041;-76
2022/04/12 08:49:24;;;;;;;9.73;7.75;;;;;;;12.88;56.03;100944.81;5006029;28;20029;-76
2022/04/12 08:51:49;;;;;;;11.75;8.43;;;;;;;12.95;56.56;100951.13;5007296;28;20029;-76
2022/04/12 08:54:18;;;;;;;11.95;7.93;;;;;;;13.00;56.47;100938.50;5005636;28;20017;-77
2022/04/12 08:56:45;;;;;;;10.50;7.88;;;;;;;13.18;57.06;100942.06;5005927;28;20472;-74
2022/04/12 08:59:11;;;;;;;11.07;7.80;;;;;;;13.22;55.13;100927.81;5006402;28;20025;-76
2022/04/12 09:01:37;;;;;;;10.35;7.15;;;;;;;13.37;54.19;100919.59;5036915;28;20025;-75
2022/04/12 09:04:02;;;;;;;9.90;7.40;;;;;;;13.46;53.46;100914.34;5025067;28;20478;-75
2022/04/12 09:06:27;;;;;;;12.07;7.85;;;;;;;13.53;53.93;100909.38;5026792;28;20022;-75
2022/04/12 09:08:53;;;;;;;11.75;7.72;;;;;;;13.70;54.09;100905.19;5027113;28;20033;-75
2022/04/12 09:11:18;;;;;;;9.65;7.70;;;;;;;13.82;54.06;100906.69;5026580;28;20040;-77
2022/04/12 09:13:58;;;;;;;9.45;7.28;;;;;;;13.94;53.71;100907.31;5026227;28;20028;-76
2022/04/12 09:16:24;;;;;;;10.73;7.10;;;;;;;14.02;52.58;100904.78;5026846;28;20029;-75
2022/04/12 09:18:49;;;;;;;10.15;7.22;;;;;;;14.08;52.16;100899.81;5025479;28;20508;-77
2022/04/12 09:21:20;;;;;;;11.95;7.18;;;;;;;14.23;52.63;100897.53;5006876;28;20038;-75
2022/04/12 09:23:50;;;;;;;10.02;7.35;;;;;;;14.31;52.49;100897.59;5005831;28;20054;-79
2022/04/12 09:26:27;;;;;;;10.18;6.60;;;;;;;14.47;52.81;100898.78;5006765;28;20390;-76
2022/04/12 09:28:54;;;;;;;10.52;7.05;;;;;;;14.59;52.22;100900.19;5007257;28;20026;-76
2022/04/12 09:31:20;;;;;;;9.07;6.75;;;;;;;14.66;51.81;100903.84;5018980;28;20032;-78
2022/04/12 09:33:49;;;;;;;9.52;6.80;;;;;;;14.74;51.28;100914.38;5027137;28;20033;-75
2022/04/12 09:36:14;;;;;;;;;;;;;;;14.86;52.73;100913.16;5027033;28;20034;-79
2022/04/12 09:38:41;;;;;;;9.48;6.90;;;;;;;14.99;51.40;100898.88;5027803;28;20365;-75
2022/04/12 09:41:22;;;;;;;11.07;6.35;;;;;;;15.13;51.99;100900.94;5025038;28;20113;-76
2022/04/12 09:43:51;;;;;;;9.27;6.20;;;;;;;15.27;51.37;100908.22;5011126;28;20050;-75
2022/04/12 09:46:17;;;;;;;7.90;5.88;;;;;;;15.32;50.64;100900.75;5010113;28;20022;-76
2022/04/12 09:48:47;;;;;;;10.00;6.60;;;;;;;15.45;50.61;100896.91;5017888;28;20504;-76
2022/04/12 09:51:13;;;;;;;10.55;6.70;;;;;;;15.47;50.02;100894.94;5029599;28;20030;-75
2022/04/12 09:53:40;;;;;;;9.15;6.00;;;;;;;15.60;50.41;100892.75;5030068;28;20036;-75
2022/04/12 09:56:22;;;;;;;9.57;6.57;;;;;;;15.75;51.23;100891.19;5030271;28;20125;-75
2022/04/12 09:58:51;;;;;;;8.98;6.30;;;;;;;15.87;51.04;100884.69;5029882;28;20061;-77
2022/04/12 10:01:17;;;;;;;;;;;;;;;15.95;51.99;100878.69;5030349;28;20075;-77
2022/04/12 10:03:48;;;;;;;8.60;5.55;;;;;;;16.03;49.16;100877.88;5030046;28;19909;-76
2022/04/12 10:06:15;;;;;;;8.80;5.97;;;;;;;16.11;49.27;100880.50;5027440;28;20033;-75
2022/04/12 10:08:42;;;;;;;12.40;5.88;;;;;;;16.20;48.15;100890.03;5029832;28;20017;-75
2022/04/12 10:11:08;;;;;;;10.98;5.90;;;;;;;16.21;48.26;100886.44;5029486;28;20059;-76
2022/04/12 10:13:34;;;;;;;8.77;5.95;;;;;;;16.33;48.45;100885.16;5029824;28;20029;-76
2022/04/12 10:15:59;;;;;;;9.75;6.30;;;;;;;16.36;48.24;100892.69;5029269;28;20037;-76
2022/04/12 10:18:25;;;;;;;14.57;6.05;;;;;;;16.45;48.31;100891.69;5028980;28;20041;-76
2022/04/12 10:20:51;;;;;;;12.30;6.10;;;;;;;16.56;48.58;100879.28;5028566;28;20112;-75
2022/04/12 10:23:19;;;;;;;9.18;5.85;;;;;;;16.57;47.75;100886.97;5029132;28;20057;-76
2022/04/12 10:25:52;;;;;;;25.05;6.32;;;;;;;16.69;48.95;100877.03;5029737;28;20033;-76
2022/04/12 10:28:19;;;;;;;7.25;4.75;;;;;;;16.80;47.24;100870.63;5029191;28;20076;-75
2022/04/12 10:30:44;;;;;;;9.20;4.95;;;;;;;16.83;46.80;100863.28;5029089;28;20025;-79
2022/04/12 10:33:15;;;;;;;8.00;4.80;;;;;;;16.94;47.59;100862.94;5028936;28;20021;-75
2022/04/12 10:35:54;;;;;;;9.13;5.22;;;;;;;16.97;47.36;100852.16;5029356;28;20104;-76
2022/04/12 10:38:22;;;;;;;7.55;4.78;;;;;;;17.08;46.93;100853.56;5019270;28;20029;-75
2022/04/12 10:40:56;;;;;;;10.57;4.80;;;;;;;17.22;46.66;100854.72;5011708;28;20021;-76
2022/04/12 10:43:33;;;;;;;8.98;4.22;;;;;;;17.38;46.65;100844.19;5008450;28;20187;-74
2022/04/12 10:46:01;;;;;;;10.13;4.32;;;;;;;17.38;46.10;100844.19;5023625;28;20045;-76
2022/04/12 10:48:29;;;;;;;9.65;4.60;;;;;;;17.32;46.29;100838.78;5008311;28;20026;-77
2022/04/12 10:50:56;;;;;;;9.07;5.65;;;;;;;17.37;45.88;100839.91;5009358;28;20026;-75
2022/04/12 10:53:37;;;;;;;8.50;5.38;;;;;;;17.37;47.41;100836.47;5028543;28;20033;-76
2022/04/12 10:56:09;;;;;;;8.15;4.93;;;;;;;17.25;46.18;100818.47;5013997;28;20121;-76
2022/04/12 10:58:35;;;;;;;7.15;4.93;;;;;;;17.34;46.58;100824.53;5008589;28;20377;-76
2022/04/12 11:01:01;;;;;;;11.02;5.40;;;;;;;17.37;47.55;100826.78;5010027;28;20463;-76
2022/04/12 11:03:52;;;;;;;7.43;4.93;;;;;;;17.49;47.46;100828.09;5007090;28;20033;-76
2022/04/12 11:06:24;;;;;;;7.13;4.93;;;;;;;17.48;45.94;100818.56;5007985;28;20060;-75
2022/04/12 11:09:11;;;;;;;9.75;4.88;;;;;;;17.60;47.28;100832.09;5008719;28;20076;-76
2022/04/12 11:11:41;;;;;;;9.57;5.30;;;;;;;17.59;46.27;100827.03;5008916;28;20022;-76
2022/04/12 11:14:24;;;;;;;8.73;4.95;;;;;;;17.67;46.84;100817.34;5008374;28;20394;-76
2022/04/12 11:16:53;;;;;;;9.65;5.25;;;;;;;17.87;47.55;100814.31;5023383;28;20142;-76
2022/04/12 11:19:21;;;;;;;9.85;5.90;;;;;;;17.84;45.05;100823.34;5027771;28;20029;-77
2022/04/12 11:21:55;;;;;;;8.50;5.72;;;;;;;17.89;46.72;100826.28;5028340;28;20038;-78
2022/04/12 11:24:22;;;;;;;10.05;5.47;;;;;;;17.92;45.95;100815.44;5028476;28;20079;-76
2022/04/12 11:27:00;;;;;;;7.80;4.95;;;;;;;17.93;47.35;100829.38;5043644;28;20074;-76